Bristol, California
Current Conditions -  °F | °C
As of 12:53 AM on Thursday 23 Oct 2014 (Local Time) from KSNA Reporting Station
Clear Clear  
Wind Chill: 68°   Ceiling: Unl
Heat Index: 68°   Visibility: 8mi
Dew Point: 60°   Wind: 0mph
Humidity: 76%   Direction: NA
Pressure: 29.96"   Gusts: NA
Location:  33.7458°N, 117.891°W
Report Text: KSNA 230753Z AUTO 00000KT 8SM CLR 20/16 A2996 RMK AO2 SLP143 T02000156 402830167 TSNO
Loading
Personal Weather Stations






























Interactive Weather Map
Tropical Storm Tracking
New forecast layout! Learn more

10-Day Weather Forecast

Advertisements
Track Severe Weather on mobile